sensor_id;sensor_type;location;lat;lon;timestamp;pressure;altitude;pressure_sealevel;temperature;humidity
69219;BME280;56232;53.384;-2.732;2023-07-08T00:02:08;100752.24;;;21.51;26.75
69219;BME280;56232;53.384;-2.732;2023-07-08T00:04:30;100753.76;;;22.10;25.77
69219;BME280;56232;53.384;-2.732;2023-07-08T00:06:56;100756.55;;;22.06;26.23
69219;BME280;56232;53.384;-2.732;2023-07-08T00:09:21;100754.42;;;22.03;26.76
69219;BME280;56232;53.384;-2.732;2023-07-08T00:11:47;100754.46;;;21.94;26.69
69219;BME280;56232;53.384;-2.732;2023-07-08T00:14:13;100756.21;;;21.89;27.08
69219;BME280;56232;53.384;-2.732;2023-07-08T00:16:39;100757.04;;;21.65;26.92
69219;BME280;56232;53.384;-2.732;2023-07-08T00:19:08;100759.46;;;21.66;26.44
69219;BME280;56232;53.384;-2.732;2023-07-08T00:21:29;100756.00;;;21.74;26.42
69219;BME280;56232;53.384;-2.732;2023-07-08T00:23:54;100753.00;;;20.70;26.23
69219;BME280;56232;53.384;-2.732;2023-07-08T00:26:23;100751.57;;;21.88;26.62
69219;BME280;56232;53.384;-2.732;2023-07-08T00:28:45;100742.37;;;21.89;26.49
69219;BME280;56232;53.384;-2.732;2023-07-08T00:31:11;100736.58;;;21.38;26.47
69219;BME280;56232;53.384;-2.732;2023-07-08T00:33:37;100737.44;;;20.73;26.58
69219;BME280;56232;53.384;-2.732;2023-07-08T00:36:08;100730.49;;;21.85;26.25
69219;BME280;56232;53.384;-2.732;2023-07-08T00:38:28;100728.96;;;21.64;26.64
69219;BME280;56232;53.384;-2.732;2023-07-08T00:40:58;100728.70;;;20.41;26.01
69219;BME280;56232;53.384;-2.732;2023-07-08T00:43:19;100726.68;;;21.43;26.22
69219;BME280;56232;53.384;-2.732;2023-07-08T00:45:46;100719.18;;;21.29;26.30
69219;BME280;56232;53.384;-2.732;2023-07-08T00:48:15;100719.06;;;21.23;26.51
69219;BME280;56232;53.384;-2.732;2023-07-08T00:50:34;100716.81;;;21.32;26.27
69219;BME280;56232;53.384;-2.732;2023-07-08T00:55:25;100708.62;;;21.31;25.53
69219;BME280;56232;53.384;-2.732;2023-07-08T00:57:50;100707.70;;;21.14;25.97
69219;BME280;56232;53.384;-2.732;2023-07-08T01:00:17;100710.10;;;21.08;26.28
69219;BME280;56232;53.384;-2.732;2023-07-08T01:02:45;100711.53;;;21.13;25.86
69219;BME280;56232;53.384;-2.732;2023-07-08T01:05:10;100712.76;;;21.18;25.75
69219;BME280;56232;53.384;-2.732;2023-07-08T01:07:33;100713.15;;;21.77;25.34
69219;BME280;56232;53.384;-2.732;2023-07-08T01:10:02;100707.49;;;21.25;25.85
69219;BME280;56232;53.384;-2.732;2023-07-08T01:12:26;100702.96;;;21.27;25.72
69219;BME280;56232;53.384;-2.732;2023-07-08T01:14:51;100691.51;;;20.08;25.72
69219;BME280;56232;53.384;-2.732;2023-07-08T01:17:14;100688.36;;;21.18;25.76
69219;BME280;56232;53.384;-2.732;2023-07-08T01:19:41;100686.81;;;21.19;25.44
69219;BME280;56232;53.384;-2.732;2023-07-08T01:22:05;100687.85;;;20.64;25.49
69219;BME280;56232;53.384;-2.732;2023-07-08T01:24:34;100688.36;;;21.02;25.48
69219;BME280;56232;53.384;-2.732;2023-07-08T01:26:56;100692.33;;;21.10;25.18
69219;BME280;56232;53.384;-2.732;2023-07-08T01:29:21;100683.76;;;21.08;24.96
69219;BME280;56232;53.384;-2.732;2023-07-08T01:31:47;100689.43;;;21.01;25.21
69219;BME280;56232;53.384;-2.732;2023-07-08T01:34:12;100694.61;;;21.04;25.15
69219;BME280;56232;53.384;-2.732;2023-07-08T01:36:41;100690.41;;;20.99;25.64
69219;BME280;56232;53.384;-2.732;2023-07-08T01:39:03;100689.81;;;21.06;25.27
69219;BME280;56232;53.384;-2.732;2023-07-08T01:41:29;100693.74;;;21.13;25.24
69219;BME280;56232;53.384;-2.732;2023-07-08T01:43:55;100695.36;;;20.96;25.31
69219;BME280;56232;53.384;-2.732;2023-07-08T01:46:24;100688.97;;;21.50;25.57
69219;BME280;56232;53.384;-2.732;2023-07-08T01:48:50;100694.35;;;19.95;25.47
69219;BME280;56232;53.384;-2.732;2023-07-08T01:51:11;100688.47;;;21.01;25.68
69219;BME280;56232;53.384;-2.732;2023-07-08T01:53:41;100686.78;;;21.07;25.35
69219;BME280;56232;53.384;-2.732;2023-07-08T01:56:03;100679.05;;;21.14;25.05
69219;BME280;56232;53.384;-2.732;2023-07-08T01:58:28;100683.22;;;20.65;24.91
69219;BME280;56232;53.384;-2.732;2023-07-08T02:00:54;100679.93;;;21.01;25.15
69219;BME280;56232;53.384;-2.732;2023-07-08T02:03:19;100677.65;;;21.12;24.94
69219;BME280;56232;53.384;-2.732;2023-07-08T02:05:45;100672.95;;;21.08;24.73
69219;BME280;56232;53.384;-2.732;2023-07-08T02:08:10;100671.73;;;21.09;24.93
69219;BME280;56232;53.384;-2.732;2023-07-08T02:10:38;100666.22;;;21.14;24.94
69219;BME280;56232;53.384;-2.732;2023-07-08T02:13:01;100662.05;;;21.19;24.77
69219;BME280;56232;53.384;-2.732;2023-07-08T02:15:27;100662.12;;;21.19;24.64
69219;BME280;56232;53.384;-2.732;2023-07-08T02:17:52;100662.66;;;20.99;25.27
69219;BME280;56232;53.384;-2.732;2023-07-08T02:20:18;100663.04;;;20.89;25.06
69219;BME280;56232;53.384;-2.732;2023-07-08T02:22:44;100662.61;;;20.84;25.08
69219;BME280;56232;53.384;-2.732;2023-07-08T02:25:09;100654.63;;;20.75;25.10
69219;BME280;56232;53.384;-2.732;2023-07-08T02:27:35;100650.48;;;20.64;25.37
69219;BME280;56232;53.384;-2.732;2023-07-08T02:30:00;100646.34;;;20.56;25.26
69219;BME280;56232;53.384;-2.732;2023-07-08T02:32:27;100640.07;;;20.45;25.16
69219;BME280;56232;53.384;-2.732;2023-07-08T02:34:56;100633.30;;;20.92;25.19
69219;BME280;56232;53.384;-2.732;2023-07-08T02:37:17;100628.38;;;20.75;25.32
69219;BME280;56232;53.384;-2.732;2023-07-08T02:39:42;100627.96;;;20.26;25.01
69219;BME280;56232;53.384;-2.732;2023-07-08T02:42:08;100629.54;;;20.20;25.13
69219;BME280;56232;53.384;-2.732;2023-07-08T02:44:34;100625.86;;;20.17;25.59
69219;BME280;56232;53.384;-2.732;2023-07-08T02:46:59;100623.70;;;20.08;25.57
69219;BME280;56232;53.384;-2.732;2023-07-08T02:49:26;100621.27;;;20.56;25.41
69219;BME280;56232;53.384;-2.732;2023-07-08T02:51:51;100616.05;;;20.53;25.70
69219;BME280;56232;53.384;-2.732;2023-07-08T02:54:16;100617.40;;;20.07;25.33
69219;BME280;56232;53.384;-2.732;2023-07-08T02:56:42;100617.32;;;20.57;25.36
69219;BME280;56232;53.384;-2.732;2023-07-08T02:59:07;100615.36;;;20.02;25.74
69219;BME280;56232;53.384;-2.732;2023-07-08T03:01:33;100614.47;;;20.56;25.46
69219;BME280;56232;53.384;-2.732;2023-07-08T03:03:58;100613.87;;;20.47;25.64
69219;BME280;56232;53.384;-2.732;2023-07-08T03:06:24;100608.79;;;20.36;25.78
69219;BME280;56232;53.384;-2.732;2023-07-08T03:08:49;100608.74;;;20.90;26.21
69219;BME280;56232;53.384;-2.732;2023-07-08T03:11:15;100608.44;;;20.30;25.57
69219;BME280;56232;53.384;-2.732;2023-07-08T03:13:42;100609.79;;;20.98;25.73
69219;BME280;56232;53.384;-2.732;2023-07-08T03:16:06;100609.28;;;20.30;25.61
69219;BME280;56232;53.384;-2.732;2023-07-08T03:18:32;100603.00;;;20.37;25.47
69219;BME280;56232;53.384;-2.732;2023-07-08T03:20:58;100603.00;;;20.98;25.41
69219;BME280;56232;53.384;-2.732;2023-07-08T03:23:24;100600.36;;;20.38;25.13
69219;BME280;56232;53.384;-2.732;2023-07-08T03:25:49;100601.40;;;20.35;25.18
69219;BME280;56232;53.384;-2.732;2023-07-08T03:28:14;100600.32;;;20.82;25.24
69219;BME280;56232;53.384;-2.732;2023-07-08T03:30:41;100597.29;;;20.18;25.66
69219;BME280;56232;53.384;-2.732;2023-07-08T03:33:06;100594.08;;;20.10;25.79
69219;BME280;56232;53.384;-2.732;2023-07-08T03:35:31;100590.97;;;20.64;25.42
69219;BME280;56232;53.384;-2.732;2023-07-08T03:37:57;100596.80;;;20.14;25.55
69219;BME280;56232;53.384;-2.732;2023-07-08T03:40:22;100593.42;;;20.05;25.40
69219;BME280;56232;53.384;-2.732;2023-07-08T03:42:48;100592.49;;;19.59;25.38
69219;BME280;56232;53.384;-2.732;2023-07-08T03:45:13;100587.62;;;20.14;25.98
69219;BME280;56232;53.384;-2.732;2023-07-08T03:47:39;100592.26;;;19.58;25.69
69219;BME280;56232;53.384;-2.732;2023-07-08T03:50:05;100591.84;;;20.00;25.61
69219;BME280;56232;53.384;-2.732;2023-07-08T03:52:29;100589.67;;;20.02;25.22
69219;BME280;56232;53.384;-2.732;2023-07-08T03:54:55;100588.96;;;19.94;25.57
69219;BME280;56232;53.384;-2.732;2023-07-08T03:57:20;100589.73;;;19.41;25.20
69219;BME280;56232;53.384;-2.732;2023-07-08T03:59:46;100592.13;;;19.57;25.98
69219;BME280;56232;53.384;-2.732;2023-07-08T04:02:11;100590.86;;;19.70;25.60
69219;BME280;56232;53.384;-2.732;2023-07-08T04:04:37;100591.66;;;19.81;25.47
69219;BME280;56232;53.384;-2.732;2023-07-08T04:07:03;100592.65;;;20.43;25.22
69219;BME280;56232;53.384;-2.732;2023-07-08T04:09:28;100597.29;;;20.63;25.12
69219;BME280;56232;53.384;-2.732;2023-07-08T04:11:54;100599.54;;;20.31;25.54
69219;BME280;56232;53.384;-2.732;2023-07-08T04:14:19;100602.73;;;20.48;25.24
69219;BME280;56232;53.384;-2.732;2023-07-08T04:16:49;100601.49;;;20.67;25.86
69219;BME280;56232;53.384;-2.732;2023-07-08T04:19:11;100603.29;;;21.27;25.98
69219;BME280;56232;53.384;-2.732;2023-07-08T04:21:36;100603.20;;;21.00;26.59
69219;BME280;56232;53.384;-2.732;2023-07-08T04:24:02;100604.57;;;20.73;26.24
69219;BME280;56232;53.384;-2.732;2023-07-08T04:26:27;100607.02;;;21.55;26.75
69219;BME280;56232;53.384;-2.732;2023-07-08T04:28:53;100609.39;;;20.73;25.75
69219;BME280;56232;53.384;-2.732;2023-07-08T04:31:19;100609.92;;;22.12;26.41
69219;BME280;56232;53.384;-2.732;2023-07-08T04:33:44;100610.72;;;21.40;26.45
69219;BME280;56232;53.384;-2.732;2023-07-08T04:36:12;100612.00;;;21.80;25.65
69219;BME280;56232;53.384;-2.732;2023-07-08T04:38:35;100604.03;;;22.07;25.93
69219;BME280;56232;53.384;-2.732;2023-07-08T04:41:01;100603.12;;;22.02;25.73
69219;BME280;56232;53.384;-2.732;2023-07-08T04:43:27;100603.42;;;21.93;26.35
69219;BME280;56232;53.384;-2.732;2023-07-08T04:45:53;100601.23;;;21.88;26.14
69219;BME280;56232;53.384;-2.732;2023-07-08T04:48:19;100600.09;;;21.93;26.48
69219;BME280;56232;53.384;-2.732;2023-07-08T04:50:46;100597.31;;;22.15;26.13
69219;BME280;56232;53.384;-2.732;2023-07-08T04:53:10;100597.09;;;22.27;26.11
69219;BME280;56232;53.384;-2.732;2023-07-08T04:55:34;100593.74;;;22.16;25.87
69219;BME280;56232;53.384;-2.732;2023-07-08T04:58:00;100584.84;;;21.95;26.02
69219;BME280;56232;53.384;-2.732;2023-07-08T05:00:26;100582.72;;;21.80;26.50
69219;BME280;56232;53.384;-2.732;2023-07-08T05:02:51;100586.15;;;21.75;27.00
69219;BME280;56232;53.384;-2.732;2023-07-08T05:05:17;100591.78;;;22.79;27.16
69219;BME280;56232;53.384;-2.732;2023-07-08T05:07:42;100592.34;;;21.55;27.19
69219;BME280;56232;53.384;-2.732;2023-07-08T05:10:08;100585.14;;;21.54;26.76
69219;BME280;56232;53.384;-2.732;2023-07-08T05:12:33;100591.48;;;22.39;27.21
69219;BME280;56232;53.384;-2.732;2023-07-08T05:14:59;100599.19;;;22.49;27.29
69219;BME280;56232;53.384;-2.732;2023-07-08T05:17:24;100596.95;;;21.97;27.21
69219;BME280;56232;53.384;-2.732;2023-07-08T05:19:50;100594.73;;;22.22;27.08
69219;BME280;56232;53.384;-2.732;2023-07-08T05:22:16;100599.06;;;22.56;26.70
69219;BME280;56232;53.384;-2.732;2023-07-08T05:24:41;100604.07;;;22.69;26.94
69219;BME280;56232;53.384;-2.732;2023-07-08T05:27:07;100613.00;;;23.04;26.46
69219;BME280;56232;53.384;-2.732;2023-07-08T05:29:32;100621.12;;;23.21;26.49
69219;BME280;56232;53.384;-2.732;2023-07-08T05:31:58;100637.57;;;22.66;25.72
69219;BME280;56232;53.384;-2.732;2023-07-08T05:34:23;100641.08;;;22.93;25.26
69219;BME280;56232;53.384;-2.732;2023-07-08T05:36:49;100634.94;;;23.80;25.53
69219;BME280;56232;53.384;-2.732;2023-07-08T05:39:15;100636.48;;;23.68;25.38
69219;BME280;56232;53.384;-2.732;2023-07-08T05:41:41;100638.10;;;24.22;25.06
69219;BME280;56232;53.384;-2.732;2023-07-08T05:44:06;100646.62;;;24.41;24.59
69219;BME280;56232;53.384;-2.732;2023-07-08T05:46:31;100653.95;;;24.77;24.13
69219;BME280;56232;53.384;-2.732;2023-07-08T05:48:57;100654.66;;;24.56;24.26
69219;BME280;56232;53.384;-2.732;2023-07-08T05:51:22;100657.68;;;24.77;24.27
69219;BME280;56232;53.384;-2.732;2023-07-08T05:53:48;100659.98;;;24.95;24.04
69219;BME280;56232;53.384;-2.732;2023-07-08T05:56:13;100659.88;;;24.47;23.92
69219;BME280;56232;53.384;-2.732;2023-07-08T05:58:40;100655.83;;;25.11;23.69
69219;BME280;56232;53.384;-2.732;2023-07-08T06:01:05;100663.45;;;25.34;24.04
69219;BME280;56232;53.384;-2.732;2023-07-08T06:03:30;100659.94;;;25.21;23.50
69219;BME280;56232;53.384;-2.732;2023-07-08T06:05:56;100663.27;;;25.89;23.61
69219;BME280;56232;53.384;-2.732;2023-07-08T06:08:22;100653.14;;;26.16;23.57
69219;BME280;56232;53.384;-2.732;2023-07-08T06:10:47;100660.20;;;24.94;23.54
69219;BME280;56232;53.384;-2.732;2023-07-08T06:13:13;100653.19;;;25.68;23.47
69219;BME280;56232;53.384;-2.732;2023-07-08T06:15:39;100665.93;;;26.32;22.63
69219;BME280;56232;53.384;-2.732;2023-07-08T06:18:04;100674.20;;;29.13;21.45
69219;BME280;56232;53.384;-2.732;2023-07-08T06:20:30;100673.62;;;28.50;21.12
69219;BME280;56232;53.384;-2.732;2023-07-08T06:22:55;100673.10;;;28.84;20.93
69219;BME280;56232;53.384;-2.732;2023-07-08T06:25:20;100667.73;;;30.31;19.49
69219;BME280;56232;53.384;-2.732;2023-07-08T06:27:46;100671.83;;;30.55;18.59
69219;BME280;56232;53.384;-2.732;2023-07-08T06:30:11;100683.96;;;33.47;17.37
69219;BME280;56232;53.384;-2.732;2023-07-08T06:32:38;100685.90;;;33.72;16.47
69219;BME280;56232;53.384;-2.732;2023-07-08T06:35:03;100690.67;;;32.63;16.83
69219;BME280;56232;53.384;-2.732;2023-07-08T06:37:28;100684.62;;;31.57;17.60
69219;BME280;56232;53.384;-2.732;2023-07-08T06:39:53;100684.10;;;33.29;16.55
69219;BME280;56232;53.384;-2.732;2023-07-08T06:42:19;100688.83;;;34.15;15.84
69219;BME280;56232;53.384;-2.732;2023-07-08T06:44:44;100681.22;;;35.37;15.17
69219;BME280;56232;53.384;-2.732;2023-07-08T06:47:10;100685.64;;;36.73;14.62
69219;BME280;56232;53.384;-2.732;2023-07-08T06:49:36;100687.38;;;38.08;13.78
69219;BME280;56232;53.384;-2.732;2023-07-08T06:52:01;100690.71;;;38.85;12.94
69219;BME280;56232;53.384;-2.732;2023-07-08T06:54:27;100692.72;;;39.94;12.37
69219;BME280;56232;53.384;-2.732;2023-07-08T06:56:52;100694.73;;;39.38;12.33
69219;BME280;56232;53.384;-2.732;2023-07-08T06:59:18;100699.40;;;37.84;12.84
69219;BME280;56232;53.384;-2.732;2023-07-08T07:01:43;100694.09;;;36.02;13.68
69219;BME280;56232;53.384;-2.732;2023-07-08T07:04:09;100699.59;;;35.43;14.45
69219;BME280;56232;53.384;-2.732;2023-07-08T07:06:34;100687.29;;;34.73;14.54
69219;BME280;56232;53.384;-2.732;2023-07-08T07:09:00;100685.72;;;35.29;14.54
69219;BME280;56232;53.384;-2.732;2023-07-08T07:11:25;100686.90;;;35.80;14.67
69219;BME280;56232;53.384;-2.732;2023-07-08T07:13:50;100684.76;;;35.72;14.17
69219;BME280;56232;53.384;-2.732;2023-07-08T07:16:16;100692.88;;;35.86;13.95
69219;BME280;56232;53.384;-2.732;2023-07-08T07:18:47;100700.61;;;37.73;13.34
69219;BME280;56232;53.384;-2.732;2023-07-08T07:21:07;100691.66;;;38.89;12.82
69219;BME280;56232;53.384;-2.732;2023-07-08T07:23:33;100693.65;;;40.01;12.40
69219;BME280;56232;53.384;-2.732;2023-07-08T07:25:58;100694.86;;;39.84;12.15
69219;BME280;56232;53.384;-2.732;2023-07-08T07:28:24;100693.87;;;39.41;12.14
69219;BME280;56232;53.384;-2.732;2023-07-08T07:30:56;100695.68;;;39.49;12.15
69219;BME280;56232;53.384;-2.732;2023-07-08T07:33:15;100703.51;;;37.37;12.98
69219;BME280;56232;53.384;-2.732;2023-07-08T07:35:43;100707.76;;;37.07;13.53
69219;BME280;56232;53.384;-2.732;2023-07-08T07:38:05;100717.03;;;36.02;14.29
69219;BME280;56232;53.384;-2.732;2023-07-08T07:40:31;100720.65;;;35.82;14.71
69219;BME280;56232;53.384;-2.732;2023-07-08T07:42:56;100723.52;;;34.62;14.78
69219;BME280;56232;53.384;-2.732;2023-07-08T07:45:22;100720.13;;;34.99;14.82
69219;BME280;56232;53.384;-2.732;2023-07-08T07:47:47;100719.47;;;34.70;15.29
69219;BME280;56232;53.384;-2.732;2023-07-08T07:50:13;100715.85;;;33.83;15.75
69219;BME280;56232;53.384;-2.732;2023-07-08T07:52:40;100731.06;;;33.48;16.29
69219;BME280;56232;53.384;-2.732;2023-07-08T07:55:04;100743.06;;;33.11;16.82
69219;BME280;56232;53.384;-2.732;2023-07-08T07:57:29;100748.08;;;32.60;17.39
69219;BME280;56232;53.384;-2.732;2023-07-08T07:59:55;100752.86;;;31.72;17.90
69219;BME280;56232;53.384;-2.732;2023-07-08T08:02:21;100755.31;;;31.10;18.44
69219;BME280;56232;53.384;-2.732;2023-07-08T08:04:46;100762.42;;;30.36;18.86
69219;BME280;56232;53.384;-2.732;2023-07-08T08:07:12;100767.50;;;30.95;19.22
69219;BME280;56232;53.384;-2.732;2023-07-08T08:09:38;100767.39;;;29.29;19.86
69219;BME280;56232;53.384;-2.732;2023-07-08T08:12:04;100774.22;;;29.69;20.21
69219;BME280;56232;53.384;-2.732;2023-07-08T08:14:28;100773.73;;;28.97;20.87
69219;BME280;56232;53.384;-2.732;2023-07-08T08:16:54;100784.60;;;29.09;21.53
69219;BME280;56232;53.384;-2.732;2023-07-08T08:19:19;100790.55;;;28.04;22.14
69219;BME280;56232;53.384;-2.732;2023-07-08T08:21:45;100788.26;;;27.53;22.44
69219;BME280;56232;53.384;-2.732;2023-07-08T08:24:10;100787.06;;;26.98;22.75
69219;BME280;56232;53.384;-2.732;2023-07-08T08:26:36;100791.76;;;27.86;23.12
69219;BME280;56232;53.384;-2.732;2023-07-08T08:29:02;100788.99;;;27.36;23.40
69219;BME280;56232;53.384;-2.732;2023-07-08T08:31:27;100789.65;;;26.99;23.68
69219;BME280;56232;53.384;-2.732;2023-07-08T08:33:53;100792.57;;;26.35;23.87
69219;BME280;56232;53.384;-2.732;2023-07-08T08:36:18;100800.59;;;26.77;24.09
69219;BME280;56232;53.384;-2.732;2023-07-08T08:38:43;100809.14;;;26.89;24.06
69219;BME280;56232;53.384;-2.732;2023-07-08T08:41:12;100811.93;;;27.05;24.01
69219;BME280;56232;53.384;-2.732;2023-07-08T08:43:36;100814.64;;;27.26;23.99
69219;BME280;56232;53.384;-2.732;2023-07-08T08:46:04;100815.43;;;27.30;24.19
69219;BME280;56232;53.384;-2.732;2023-07-08T08:48:26;100817.78;;;26.99;24.20
69219;BME280;56232;53.384;-2.732;2023-07-08T08:50:52;100822.70;;;27.37;24.01
69219;BME280;56232;53.384;-2.732;2023-07-08T08:53:17;100824.79;;;27.83;23.91
69219;BME280;56232;53.384;-2.732;2023-07-08T08:55:42;100822.21;;;28.45;23.93
69219;BME280;56232;53.384;-2.732;2023-07-08T08:58:17;100825.67;;;27.80;24.01
69219;BME280;56232;53.384;-2.732;2023-07-08T09:00:41;100828.03;;;27.71;24.07
69219;BME280;56232;53.384;-2.732;2023-07-08T09:03:02;100828.75;;;27.10;24.12
69219;BME280;56232;53.384;-2.732;2023-07-08T09:05:24;100829.54;;;27.66;24.16
69219;BME280;56232;53.384;-2.732;2023-07-08T09:08:00;100830.55;;;28.09;24.26
69219;BME280;56232;53.384;-2.732;2023-07-08T09:10:29;100835.14;;;27.89;24.16
69219;BME280;56232;53.384;-2.732;2023-07-08T09:12:41;100839.32;;;27.35;24.13
69219;BME280;56232;53.384;-2.732;2023-07-08T09:15:13;100842.13;;;29.11;23.83
69219;BME280;56232;53.384;-2.732;2023-07-08T09:17:33;100845.04;;;28.98;23.54
69219;BME280;56232;53.384;-2.732;2023-07-08T09:20:00;100842.88;;;28.58;23.43
69219;BME280;56232;53.384;-2.732;2023-07-08T09:22:30;100832.69;;;28.81;23.31
69219;BME280;56232;53.384;-2.732;2023-07-08T09:24:50;100834.98;;;29.59;23.12
69219;BME280;56232;53.384;-2.732;2023-07-08T09:27:14;100834.51;;;29.47;23.05
69219;BME280;56232;53.384;-2.732;2023-07-08T09:29:40;100832.28;;;29.53;23.09
69219;BME280;56232;53.384;-2.732;2023-07-08T09:32:15;100834.30;;;28.97;22.93
69219;BME280;56232;53.384;-2.732;2023-07-08T09:34:37;100836.65;;;29.20;22.87
69219;BME280;56232;53.384;-2.732;2023-07-08T09:36:55;100832.62;;;28.99;22.78
69219;BME280;56232;53.384;-2.732;2023-07-08T09:39:21;100834.27;;;29.95;22.62
69219;BME280;56232;53.384;-2.732;2023-07-08T09:41:47;100833.39;;;29.14;22.45
69219;BME280;56232;53.384;-2.732;2023-07-08T09:44:20;100835.56;;;30.30;22.30
69219;BME280;56232;53.384;-2.732;2023-07-08T09:46:37;100844.05;;;29.51;22.25
69219;BME280;56232;53.384;-2.732;2023-07-08T09:49:09;100852.09;;;29.74;22.42
69219;BME280;56232;53.384;-2.732;2023-07-08T09:51:28;100855.81;;;29.59;22.53
69219;BME280;56232;53.384;-2.732;2023-07-08T09:53:54;100865.68;;;29.78;22.51
69219;BME280;56232;53.384;-2.732;2023-07-08T09:56:19;100869.40;;;29.95;22.38
69219;BME280;56232;53.384;-2.732;2023-07-08T09:58:45;100872.32;;;29.12;22.49
69219;BME280;56232;53.384;-2.732;2023-07-08T10:01:13;100868.35;;;29.55;22.57
69219;BME280;56232;53.384;-2.732;2023-07-08T10:03:36;100866.56;;;30.05;22.64
69219;BME280;56232;53.384;-2.732;2023-07-08T10:06:05;100870.45;;;29.43;22.55
69219;BME280;56232;53.384;-2.732;2023-07-08T10:08:40;100881.26;;;29.72;22.53
69219;BME280;56232;53.384;-2.732;2023-07-08T10:10:58;100884.26;;;29.29;22.54
69219;BME280;56232;53.384;-2.732;2023-07-08T10:13:21;100893.65;;;29.45;22.50
69219;BME280;56232;53.384;-2.732;2023-07-08T10:15:47;100891.82;;;28.76;22.33
69219;BME280;56232;53.384;-2.732;2023-07-08T10:18:13;100889.88;;;29.68;22.42
69219;BME280;56232;53.384;-2.732;2023-07-08T10:20:44;100870.45;;;29.61;22.50
69219;BME280;56232;53.384;-2.732;2023-07-08T10:23:08;100870.23;;;29.86;22.55
69219;BME280;56232;53.384;-2.732;2023-07-08T10:25:31;100883.22;;;29.59;22.40
69219;BME280;56232;53.384;-2.732;2023-07-08T10:27:55;100883.12;;;29.20;22.35
69219;BME280;56232;53.384;-2.732;2023-07-08T10:30:21;100880.95;;;29.66;22.22
69219;BME280;56232;53.384;-2.732;2023-07-08T10:32:53;100889.70;;;29.58;22.19
69219;BME280;56232;53.384;-2.732;2023-07-08T10:35:13;100894.04;;;29.02;22.29
69219;BME280;56232;53.384;-2.732;2023-07-08T10:37:41;100900.81;;;30.00;22.44
69219;BME280;56232;53.384;-2.732;2023-07-08T10:40:09;100912.42;;;29.30;22.31
69219;BME280;56232;53.384;-2.732;2023-07-08T10:42:35;100938.36;;;29.27;22.74
69219;BME280;56232;53.384;-2.732;2023-07-08T10:44:56;100950.32;;;29.12;22.90
69219;BME280;56232;53.384;-2.732;2023-07-08T10:47:28;100959.62;;;28.24;23.10
69219;BME280;56232;53.384;-2.732;2023-07-08T10:49:51;100962.90;;;28.59;23.28
69219;BME280;56232;53.384;-2.732;2023-07-08T10:52:21;100961.06;;;28.12;23.45
69219;BME280;56232;53.384;-2.732;2023-07-08T10:54:44;100964.78;;;28.65;23.73
69219;BME280;56232;53.384;-2.732;2023-07-08T10:57:05;100968.59;;;27.99;24.24
69219;BME280;56232;53.384;-2.732;2023-07-08T10:59:32;100978.68;;;27.57;24.79
69219;BME280;56232;53.384;-2.732;2023-07-08T11:02:00;100979.24;;;26.77;25.65
69219;BME280;56232;53.384;-2.732;2023-07-08T11:04:25;100985.40;;;26.67;26.17
69219;BME280;56232;53.384;-2.732;2023-07-08T11:06:46;100993.69;;;26.75;26.87
69219;BME280;56232;53.384;-2.732;2023-07-08T11:09:13;100994.23;;;26.45;28.19
69219;BME280;56232;53.384;-2.732;2023-07-08T11:11:34;100993.16;;;24.34;29.67
69219;BME280;56232;53.384;-2.732;2023-07-08T11:14:04;100985.44;;;24.30;30.25
69219;BME280;56232;53.384;-2.732;2023-07-08T11:16:24;100976.92;;;23.88;31.22
69219;BME280;56232;53.384;-2.732;2023-07-08T11:18:51;100976.92;;;23.55;31.33
69219;BME280;56232;53.384;-2.732;2023-07-08T11:21:14;100970.91;;;23.94;32.40
69219;BME280;56232;53.384;-2.732;2023-07-08T11:23:41;100954.26;;;23.66;32.83
69219;BME280;56232;53.384;-2.732;2023-07-08T11:26:20;100948.98;;;23.86;32.86
69219;BME280;56232;53.384;-2.732;2023-07-08T11:28:29;100956.48;;;23.72;32.84
69219;BME280;56232;53.384;-2.732;2023-07-08T11:31:00;100973.03;;;23.99;33.06
69219;BME280;56232;53.384;-2.732;2023-07-08T11:33:24;100971.67;;;24.48;32.56
69219;BME280;56232;53.384;-2.732;2023-07-08T11:35:49;100964.91;;;23.73;33.27
69219;BME280;56232;53.384;-2.732;2023-07-08T11:38:14;100962.89;;;24.36;33.29
69219;BME280;56232;53.384;-2.732;2023-07-08T11:43:05;100983.23;;;24.91;33.89
69219;BME280;56232;53.384;-2.732;2023-07-08T11:45:31;100978.55;;;24.85;33.67
69219;BME280;56232;53.384;-2.732;2023-07-08T11:47:53;100969.36;;;25.36;33.93
69219;BME280;56232;53.384;-2.732;2023-07-08T11:50:22;100963.25;;;25.43;32.90
69219;BME280;56232;53.384;-2.732;2023-07-08T11:52:51;100960.30;;;25.48;32.87
69219;BME280;56232;53.384;-2.732;2023-07-08T11:55:20;100968.79;;;26.68;32.27
69219;BME280;56232;53.384;-2.732;2023-07-08T11:57:40;100994.71;;;26.53;32.91
69219;BME280;56232;53.384;-2.732;2023-07-08T12:02:27;101014.88;;;27.22;30.90
69219;BME280;56232;53.384;-2.732;2023-07-08T12:04:56;101009.64;;;28.06;30.19
69219;BME280;56232;53.384;-2.732;2023-07-08T12:07:20;101003.25;;;28.25;29.49
69219;BME280;56232;53.384;-2.732;2023-07-08T12:09:47;101002.87;;;29.29;28.27
69219;BME280;56232;53.384;-2.732;2023-07-08T12:12:16;101002.16;;;29.69;27.96
69219;BME280;56232;53.384;-2.732;2023-07-08T12:14:34;101004.72;;;29.49;26.95
69219;BME280;56232;53.384;-2.732;2023-07-08T12:16:59;101008.98;;;29.44;26.54
69219;BME280;56232;53.384;-2.732;2023-07-08T12:19:27;101014.29;;;28.64;27.23
69219;BME280;56232;53.384;-2.732;2023-07-08T12:21:50;101005.13;;;29.00;26.72
69219;BME280;56232;53.384;-2.732;2023-07-08T12:24:16;100997.87;;;29.26;26.78
69219;BME280;56232;53.384;-2.732;2023-07-08T12:26:42;100991.13;;;29.49;26.54
69219;BME280;56232;53.384;-2.732;2023-07-08T12:29:08;100997.13;;;29.75;25.73
69219;BME280;56232;53.384;-2.732;2023-07-08T12:31:32;100990.03;;;28.33;26.33
69219;BME280;56232;53.384;-2.732;2023-07-08T12:33:58;100992.47;;;28.65;25.93
69219;BME280;56232;53.384;-2.732;2023-07-08T12:36:26;100993.18;;;29.70;25.73
69219;BME280;56232;53.384;-2.732;2023-07-08T12:38:50;100992.32;;;28.50;25.43